Time;durP1;ratioP1;P1;durP2;ratioP2;P2;SDS_P1;SDS_P2;PMS_P1;PMS_P2;Temp;Humidity;BMP_temperature;BMP_pressure;BME280_temperature;BME280_humidity;BME280_pressure;Samples;Min_cycle;Max_cycle;Signal;HPM_P1;HPM_P2
2023/01/25 08:48:58;;;;;;;53.35;33.17;;;-0.80;99.90;;;;;;4927483;23;20054;-86
2023/01/25 08:52:05;;;;;;;;;;;;;;;;;;;;;
2023/01/25 08:54:41;;;;;;;54.17;33.97;;;0.20;99.90;;;;;;4907123;29;20056;-90
2023/01/25 08:57:15;;;;;;;59.83;36.03;;;-1.40;99.90;;;;;;4886544;29;20053;-90
2023/01/25 09:49:53;;;;;;;58.65;33.97;;;-0.80;99.90;;;;;;4931872;29;20487;-92
2023/01/25 09:53:04;;;;;;;56.55;34.30;;;-0.80;99.90;;;;;;4915801;29;20436;-90
2023/01/25 09:56:07;;;;;;;57.75;33.45;;;-2.00;99.90;;;;;;4929336;29;20058;-90
2023/01/25 09:59:26;;;;;;;;;;;;;;;;;;;;;
2023/01/25 10:07:00;;;;;;;;;;;;;;;;;;;;;
2023/01/25 10:09:50;;;;;;;;;;;;;;;;;;;;;
2023/01/25 10:12:53;;;;;;;59.60;33.45;;;-0.60;99.90;;;;;;4934961;29;20056;-88
2023/01/25 10:15:42;;;;;;;62.75;34.25;;;0.60;99.90;;;;;;4923186;29;20106;-87
2023/01/25 10:18:29;;;;;;;56.05;33.20;;;0.40;99.90;;;;;;4923442;29;20051;-87
2023/01/25 10:23:46;;;;;;;57.85;31.98;;;-0.20;99.90;;;;;;4915966;29;20052;-87
2023/01/25 10:26:30;;;;;;;56.67;33.65;;;-0.50;99.90;;;;;;4922120;29;20111;-88
2023/01/25 10:30:13;;;;;;;60.42;36.03;;;-0.40;99.90;;;;;;4916338;29;20552;-87
2023/01/25 15:26:11;;;;;;;78.68;33.75;;;0.80;99.90;;;;;;4836762;29;20110;-88
2023/01/25 15:33:11;;;;;;;;;;;;;;;;;;;;;
2023/01/25 15:42:08;;;;;;;77.65;35.92;;;0.00;99.90;;;;;;4913977;29;20114;-87
2023/01/25 15:47:55;;;;;;;77.75;36.20;;;0.20;99.90;;;;;;4921704;23;20662;-92
2023/01/25 15:54:13;;;;;;;73.90;35.53;;;-1.60;99.90;;;;;;4896436;29;20499;-90
2023/01/25 15:57:38;;;;;;;;;;;;;;;;;;;;;
2023/01/25 16:00:22;;;;;;;78.22;35.22;;;0.00;99.90;;;;;;4953940;23;20060;-93
2023/01/25 16:03:22;;;;;;;84.30;36.90;;;0.50;99.90;;;;;;4901976;29;20052;-93
2023/01/25 16:06:43;;;;;;;;;;;;;;;;;;;;;
2023/01/25 16:09:18;;;;;;;78.80;34.85;;;0.90;99.90;;;;;;4916709;29;20048;-87
2023/01/25 16:11:47;;;;;;;76.28;34.28;;;0.30;99.90;;;;;;4915030;29;20048;-86
2023/01/25 16:14:13;;;;;;;76.22;33.10;;;1.40;99.90;;;;;;4917328;29;20143;-86
2023/01/25 16:16:48;;;;;;;81.25;35.08;;;0.60;99.90;;;;;;4915013;29;20131;-86
2023/01/25 16:19:16;;;;;;;75.63;34.40;;;0.60;99.90;;;;;;4899129;29;20056;-87
2023/01/25 16:21:42;;;;;;;77.25;35.88;;;2.10;99.90;;;;;;4918624;29;20250;-85
2023/01/25 16:24:12;;;;;;;77.20;38.15;;;0.90;99.90;;;;;;4894827;29;20055;-88
2023/01/25 16:26:44;;;;;;;87.05;38.17;;;-0.60;99.90;;;;;;4889401;29;20425;-85
2023/01/25 16:29:12;;;;;;;87.18;37.42;;;0.90;99.90;;;;;;4893723;29;20127;-85
2023/01/25 16:31:38;;;;;;;87.18;38.35;;;0.40;99.90;;;;;;4896993;29;20066;-85
2023/01/25 16:34:08;;;;;;;82.20;37.10;;;2.40;99.90;;;;;;4906573;29;20047;-85
2023/01/25 16:36:37;;;;;;;85.00;37.60;;;2.20;99.90;;;;;;4919868;29;20192;-89
2023/01/25 16:39:18;;;;;;;90.80;39.13;;;1.60;99.90;;;;;;4895129;29;20052;-92
2023/01/25 16:41:46;;;;;;;90.05;35.13;;;2.30;99.90;;;;;;4910602;29;20064;-85
2023/01/25 16:44:13;;;;;;;84.18;36.55;;;2.80;99.90;;;;;;4910107;29;20052;-87
2023/01/25 16:46:40;;;;;;;88.20;37.33;;;-1.20;99.90;;;;;;4911721;29;20139;-85
2023/01/25 16:49:08;;;;;;;82.18;36.33;;;0.40;99.90;;;;;;4897600;29;20261;-83
2023/01/25 16:51:36;;;;;;;86.93;34.50;;;1.10;99.90;;;;;;4908785;29;20115;-85
2023/01/25 16:54:02;;;;;;;86.60;36.47;;;1.10;99.90;;;;;;4910955;29;20063;-85
2023/01/25 16:56:31;;;;;;;84.03;36.38;;;1.80;99.90;;;;;;4893480;29;20054;-87
2023/01/25 16:59:03;;;;;;;88.55;36.28;;;-0.70;99.90;;;;;;4892526;29;20087;-86
2023/01/25 17:01:31;;;;;;;88.35;36.13;;;0.00;99.90;;;;;;4893264;29;20063;-86
2023/01/25 17:03:57;;;;;;;87.55;35.67;;;0.20;99.90;;;;;;4893720;29;20095;-85
2023/01/25 17:06:29;;;;;;;90.22;38.20;;;1.50;99.90;;;;;;4911314;29;20067;-86
2023/01/25 17:08:57;;;;;;;87.85;36.03;;;0.90;99.90;;;;;;4913486;29;20071;-86
2023/01/25 17:11:28;;;;;;;93.45;37.47;;;1.40;99.90;;;;;;4898339;29;20055;-88
2023/01/25 17:14:01;;;;;;;82.90;36.47;;;0.40;99.90;;;;;;4890705;29;20401;-85
2023/01/25 17:16:28;;;;;;;87.50;37.50;;;0.00;99.90;;;;;;4903651;29;20435;-87
2023/01/25 17:18:59;;;;;;;88.28;39.60;;;0.60;99.90;;;;;;4907550;29;20289;-86
2023/01/25 17:21:27;;;;;;;82.70;37.50;;;0.50;99.90;;;;;;4915460;29;20379;-86
2023/01/25 17:23:55;;;;;;;89.60;36.88;;;-0.10;99.90;;;;;;4898405;29;20048;-85
2023/01/25 17:26:25;;;;;;;88.13;36.83;;;1.00;99.90;;;;;;4898139;29;20090;-85
2023/01/25 17:28:53;;;;;;;83.80;35.65;;;2.80;99.90;;;;;;4913031;29;20420;-85
2023/01/25 17:31:23;;;;;;;85.43;34.55;;;-0.80;99.90;;;;;;4912587;29;20059;-86
2023/01/25 17:33:49;;;;;;;91.90;38.25;;;-0.80;99.90;;;;;;4897734;29;20062;-85
2023/01/25 17:36:18;;;;;;;91.13;37.08;;;0.30;99.90;;;;;;4912879;29;20052;-86
2023/01/25 17:38:44;;;;;;;91.35;36.58;;;1.70;99.90;;;;;;4882262;29;20067;-86
2023/01/25 17:41:14;;;;;;;91.63;36.40;;;1.80;99.90;;;;;;4914127;29;20108;-86
2023/01/25 17:43:39;;;;;;;96.00;38.80;;;-0.20;99.90;;;;;;4896925;29;20478;-87
2023/01/25 17:46:28;;;;;;;89.70;38.47;;;3.20;99.90;;;;;;4913401;29;20135;-86
2023/01/25 17:48:58;;;;;;;100.38;38.60;;;-0.10;99.90;;;;;;4913217;29;20092;-86
2023/01/25 17:51:25;;;;;;;99.35;40.63;;;1.50;99.90;;;;;;4897159;29;20182;-86
2023/01/25 17:53:53;;;;;;;95.45;39.17;;;2.00;99.90;;;;;;4912520;29;20056;-86
2023/01/25 17:56:19;;;;;;;95.43;40.35;;;-0.20;99.90;;;;;;4881391;29;20485;-86
2023/01/25 17:58:45;;;;;;;95.50;39.92;;;0.90;99.90;;;;;;4912754;29;20056;-86
2023/01/25 18:01:25;;;;;;;112.45;39.67;;;1.80;99.90;;;;;;4912927;29;20055;-86
2023/01/25 18:03:52;;;;;;;98.55;39.03;;;-0.10;99.90;;;;;;4896908;29;20087;-86
2023/01/25 18:06:24;;;;;;;96.20;37.72;;;-0.10;99.90;;;;;;4912227;29;20155;-87
2023/01/25 18:08:51;;;;;;;96.30;38.97;;;2.00;99.90;;;;;;4882003;29;20480;-87
2023/01/25 18:11:21;;;;;;;104.72;39.42;;;0.00;99.90;;;;;;4912021;29;20519;-86
2023/01/25 18:13:49;;;;;;;109.82;38.70;;;2.40;99.90;;;;;;4912596;29;20044;-85
2023/01/25 18:16:16;;;;;;;96.88;36.70;;;-1.00;99.90;;;;;;4889341;29;20048;-86
2023/01/25 18:18:44;;;;;;;95.65;36.47;;;1.00;99.90;;;;;;4911312;29;20055;-86
2023/01/25 18:21:24;;;;;;;110.35;39.70;;;1.20;99.90;;;;;;4896562;29;20139;-86
2023/01/25 18:23:56;;;;;;;97.13;38.25;;;0.10;99.90;;;;;;4882817;29;20219;-86
2023/01/25 18:26:35;;;;;;;100.68;38.33;;;-0.20;99.90;;;;;;4906079;29;20453;-86
2023/01/25 18:29:29;;;;;;;105.00;41.20;;;1.50;99.90;;;;;;4912773;29;20048;-85
2023/01/25 18:31:59;;;;;;;104.35;37.67;;;-0.70;99.90;;;;;;4882812;29;20120;-84
2023/01/25 18:34:25;;;;;;;95.18;38.08;;;;;;;;;;4896721;29;20400;-85
2023/01/25 18:36:58;;;;;;;106.45;40.75;;;-0.20;99.90;;;;;;4912498;29;20040;-86
2023/01/25 18:39:25;;;;;;;110.32;41.28;;;0.80;99.90;;;;;;4889329;29;20127;-86
2023/01/25 18:41:54;;;;;;;103.50;38.75;;;1.80;99.90;;;;;;4912260;29;20052;-85
2023/01/25 18:44:23;;;;;;;105.90;39.17;;;1.20;99.90;;;;;;4888885;29;20044;-86
2023/01/25 18:46:48;;;;;;;131.35;42.80;;;0.10;99.90;;;;;;4895933;29;20063;-86
2023/01/25 18:49:17;;;;;;;105.78;40.78;;;-0.10;99.90;;;;;;4912193;29;20445;-85
2023/01/25 18:51:47;;;;;;;106.93;41.20;;;2.00;99.90;;;;;;4911829;29;20064;-85
2023/01/25 18:54:14;;;;;;;94.15;38.08;;;1.10;99.90;;;;;;4896106;29;20058;-86
2023/01/25 18:56:39;;;;;;;109.00;40.28;;;0.40;99.90;;;;;;4896450;29;20095;-85
2023/01/25 18:59:05;;;;;;;117.28;41.78;;;;;;;;;;4904259;29;20052;-85
2023/01/25 19:01:31;;;;;;;114.63;40.10;;;-0.20;99.90;;;;;;4899054;29;20047;-86
2023/01/25 19:03:57;;;;;;;102.57;38.85;;;-1.10;99.90;;;;;;4897487;29;20124;-85
2023/01/25 19:06:26;;;;;;;109.18;39.03;;;2.80;99.90;;;;;;4911403;29;20504;-86
2023/01/25 19:08:55;;;;;;;105.75;41.17;;;-1.10;99.90;;;;;;4896279;29;20115;-87
2023/01/25 19:11:21;;;;;;;95.90;38.22;;;1.00;99.90;;;;;;4911884;29;20091;-86
2023/01/25 19:13:48;;;;;;;98.68;37.25;;;-0.10;99.90;;;;;;4910886;29;20055;-87
2023/01/25 19:16:19;;;;;;;109.13;40.25;;;0.10;99.90;;;;;;4911870;29;20504;-87
2023/01/25 19:18:51;;;;;;;111.93;40.67;;;0.10;99.90;;;;;;4912821;29;20048;-86
2023/01/25 19:21:23;;;;;;;100.88;39.97;;;0.00;99.90;;;;;;4894986;29;20412;-87
2023/01/25 19:23:50;;;;;;;102.10;40.38;;;0.40;99.90;;;;;;4895668;29;20052;-87
2023/01/25 19:26:20;;;;;;;110.75;39.67;;;0.10;99.90;;;;;;4910725;29;20056;-86
2023/01/25 19:28:47;;;;;;;111.05;41.67;;;1.50;99.90;;;;;;4910546;29;20583;-86
2023/01/25 19:31:16;;;;;;;97.93;39.95;;;-0.10;99.90;;;;;;4894961;29;20511;-86
2023/01/25 19:33:52;;;;;;;102.30;38.33;;;-0.50;99.90;;;;;;4895921;29;20048;-86
2023/01/25 19:36:19;;;;;;;98.53;37.50;;;1.60;99.90;;;;;;4910924;29;20046;-87
2023/01/25 19:38:49;;;;;;;100.82;39.53;;;0.00;99.90;;;;;;4895463;29;20087;-89
2023/01/25 19:41:22;;;;;;;96.88;37.80;;;-1.20;99.90;;;;;;4880450;29;20131;-87
2023/01/25 19:44:02;;;;;;;96.10;36.00;;;0.20;99.90;;;;;;4911202;29;20394;-87
2023/01/25 19:46:37;;;;;;;100.57;37.55;;;-0.20;99.90;;;;;;4894848;29;20562;-88
2023/01/25 19:49:05;;;;;;;99.40;38.83;;;2.50;99.90;;;;;;4881920;29;20531;-87
2023/01/25 19:51:52;;;;;;;95.20;37.05;;;1.40;99.90;;;;;;4895009;29;20048;-86
2023/01/25 19:54:25;;;;;;;103.93;39.35;;;-1.60;99.90;;;;;;4895384;29;20472;-87
2023/01/25 19:56:58;;;;;;;100.50;40.67;;;0.60;99.90;;;;;;4914756;29;20107;-87
2023/01/25 20:03:02;;;;;;;93.93;36.17;;;-1.20;99.90;;;;;;4869564;29;20144;-86
2023/01/25 20:05:33;;;;;;;96.45;38.45;;;0.70;99.90;;;;;;4877792;29;20539;-89
2023/01/25 20:08:04;;;;;;;113.75;37.50;;;1.40;99.90;;;;;;4895918;29;20460;-88
2023/01/25 20:10:41;;;;;;;99.53;37.53;;;0.00;99.90;;;;;;4877475;29;20062;-89
2023/01/25 20:13:18;;;;;;;98.88;36.90;;;0.70;99.90;;;;;;4893783;29;20087;-87
2023/01/25 20:45:53;;;;;;;;;;;;;;;;;;;;;
2023/01/25 20:48:35;;;;;;;79.55;31.63;;;-1.30;99.90;;;;;;4902516;29;20120;-90
2023/01/25 20:53:53;;;;;;;;;;;;;;;;;;;;;
2023/01/25 20:56:49;;;;;;;77.43;30.80;;;1.40;99.90;;;;;;4923305;29;20079;-88
2023/01/25 20:59:18;;;;;;;69.35;28.27;;;0.10;99.90;;;;;;4910711;29;20055;-88
2023/01/25 21:01:49;;;;;;;85.68;32.28;;;-1.20;99.90;;;;;;4929323;29;20090;-88
2023/01/25 21:04:25;;;;;;;;;;;;;;;;;;;;;
2023/01/25 21:09:55;;;;;;;71.07;27.98;;;1.30;99.90;;;;;;4913292;29;20059;-89
2023/01/25 21:17:27;;;;;;;70.30;31.98;;;0.00;99.90;;;;;;4909930;29;20071;-88
2023/01/25 22:10:10;;;;;;;54.97;23.38;;;-0.10;99.90;;;;;;5185550;23;20053;-89
2023/01/25 22:16:26;;;;;;;53.65;23.83;;;-0.80;99.90;;;;;;4909514;29;20056;-91
2023/01/25 22:19:07;;;;;;;51.03;21.55;;;2.20;99.90;;;;;;4897851;29;20054;-90
2023/01/25 22:25:58;;;;;;;44.92;19.90;;;0.30;99.90;;;;;;4931773;29;20063;-89
2023/01/25 22:28:58;;;;;;;43.70;20.73;;;0.50;99.90;;;;;;4923911;29;20059;-91
